Weather at Perekop Airfield [CLOSED]

Public forecast

Using degrees Celsius for public forecast. Weather courtesy of forecast.io.

Closest aviation weather report (METAR) to Perekop Airfield

Closest report is Anapa Vityazevo Airport, 167.6 nm (310.4 km) ESE.

2024/05/21 16:00 (retrieved 28 minutes ago)

URKA 211600Z 29003MPS CAVOK 19/15 Q1017 R21/010070 NOSIG RMK QFE757/1010

Closest aviation forecast (TAF) to Perekop Airfield

Closest forecast is Anapa Vityazevo Airport, 167.6 nm (310.4 km) ESE.

2024/05/21 15:21 (retrieved 1 hour ago)

TAF TAF URKA 211350Z 2115/2215 05003G08MPS 9999 SCT040 TEMPO 2115/2118 25003G08MPS TEMPO 2118/2206 12003G08MPS